Time;durP1;ratioP1;P1;durP2;ratioP2;P2;SDS_P1;SDS_P2;PMS_P1;PMS_P2;Temp;Humidity;BMP_temperature;BMP_pressure;BME280_temperature;BME280_humidity;BME280_pressure;Samples;Min_cycle;Max_cycle;Signal;HPM_P1;HPM_P2
2023/03/14 00:02:25;;;;;;;1.50;0.57;;;;;;;-145.69;100.00;52440.44;5114781;28;20202;-81
2023/03/14 00:04:55;;;;;;;0.60;0.60;;;;;;;-145.69;100.00;52456.28;5115070;28;20232;-81
2023/03/14 00:07:36;;;;;;;2.17;0.70;;;;;;;-145.69;100.00;52444.38;5116089;28;20185;-82
2023/03/14 00:10:04;;;;;;;0.93;0.53;;;;;;;-145.69;100.00;52468.16;5116038;28;20201;-81
2023/03/14 00:12:33;;;;;;;0.60;0.50;;;;;;;-145.69;100.00;52464.19;5115173;28;20193;-82
2023/03/14 00:15:07;;;;;;;0.70;0.70;;;;;;;-145.69;100.00;52442.41;5115350;28;20203;-81
2023/03/14 00:17:34;;;;;;;0.60;0.60;;;;;;;-145.69;100.00;52464.19;5115441;28;20242;-81
2023/03/14 00:20:07;;;;;;;0.50;0.50;;;;;;;-145.69;100.00;52462.22;5115876;28;20647;-81
2023/03/14 00:22:35;;;;;;;0.40;0.40;;;;;;;-145.69;100.00;52456.28;5116242;28;20200;-82
2023/03/14 00:25:02;;;;;;;0.60;0.60;;;;;;;-145.69;100.00;52456.28;5115861;28;20225;-77
2023/03/14 00:27:30;;;;;;;0.50;0.50;;;;;;;-145.69;100.00;52428.53;5115192;28;20559;-81
2023/03/14 00:30:02;;;;;;;0.57;0.57;;;;;;;-145.69;100.00;52464.19;5115915;28;20288;-80
2023/03/14 00:32:30;;;;;;;0.60;0.60;;;;;;;-145.69;100.00;52464.19;5114510;28;20663;-81
2023/03/14 00:34:57;;;;;;;0.40;0.40;;;;;;;-145.69;100.00;52416.66;5115273;28;20194;-80
2023/03/14 00:37:29;;;;;;;1.17;0.50;;;;;;;-145.69;100.00;52456.28;5117402;28;20201;-81
2023/03/14 00:39:58;;;;;;;0.57;0.57;;;;;;;-145.69;100.00;52452.31;5118701;28;20297;-80
2023/03/14 00:42:25;;;;;;;0.47;0.47;;;;;;;-145.69;100.00;52450.31;5124217;28;20229;-80
2023/03/14 00:44:55;;;;;;;0.43;0.43;;;;;;;-145.69;100.00;52491.91;5126450;28;20227;-81
2023/03/14 00:47:22;;;;;;;0.50;0.50;;;;;;;-145.69;100.00;52416.66;5127240;28;20280;-80
2023/03/14 00:49:51;;;;;;;0.83;0.57;;;;;;;-145.69;100.00;52452.31;5127886;28;20210;-81
2023/03/14 00:52:22;;;;;;;0.60;0.60;;;;;;;-145.69;100.00;52487.97;5125306;28;20250;-81
2023/03/14 00:54:53;;;;;;;0.63;0.63;;;;;;;-145.69;100.00;52460.22;5124125;28;20259;-82
2023/03/14 00:57:20;;;;;;;0.70;0.60;;;;;;;-145.69;100.00;52446.38;5123484;28;20209;-80
2023/03/14 00:59:49;;;;;;;0.50;0.50;;;;;;;-145.69;100.00;52487.97;5123898;28;20277;-80
2023/03/14 01:02:15;;;;;;;0.40;0.40;;;;;;;-145.69;100.00;52456.28;5123892;28;20230;-81
2023/03/14 01:04:47;;;;;;;0.50;0.50;;;;;;;-145.69;100.00;52456.28;5123329;28;20217;-80
2023/03/14 01:07:18;;;;;;;0.40;0.40;;;;;;;-145.69;100.00;52422.59;5124365;28;20194;-81
2023/03/14 01:09:44;;;;;;;0.60;0.60;;;;;;;-145.69;100.00;52412.69;5123595;28;20232;-81
2023/03/14 01:12:17;;;;;;;1.50;0.50;;;;;;;-145.69;100.00;52434.47;5121270;28;20209;-82
2023/03/14 01:14:45;;;;;;;1.13;0.50;;;;;;;-145.69;100.00;52444.38;5121707;28;20196;-81
2023/03/14 01:17:11;;;;;;;0.40;0.40;;;;;;;-145.69;100.00;52422.59;5120518;28;20201;-80
2023/03/14 01:19:41;;;;;;;0.70;0.70;;;;;;;-145.69;100.00;52474.09;5119649;28;20390;-82
2023/03/14 01:22:10;;;;;;;0.60;0.60;;;;;;;-145.69;100.00;52489.94;5120937;28;20201;-82
2023/03/14 01:24:39;;;;;;;0.50;0.50;;;;;;;-145.69;100.00;52456.28;5122742;28;20217;-83
2023/03/14 01:27:05;;;;;;;0.40;0.40;;;;;;;-145.69;100.00;52454.28;5119621;28;20194;-81
2023/03/14 01:29:32;;;;;;;0.47;0.47;;;;;;;-145.69;100.00;52432.50;5119194;28;20292;-80
2023/03/14 01:32:03;;;;;;;1.53;0.60;;;;;;;-145.69;100.00;52452.31;5117859;28;20208;-81
2023/03/14 01:34:30;;;;;;;0.43;0.43;;;;;;;-145.69;100.00;52464.19;5126374;28;20200;-81
2023/03/14 01:36:56;;;;;;;0.40;0.40;;;;;;;-145.69;100.00;52460.22;5132088;28;20198;-82
2023/03/14 01:39:25;;;;;;;0.53;0.50;;;;;;;-145.69;100.00;52448.34;5130072;28;20221;-81
2023/03/14 01:41:53;;;;;;;1.53;0.70;;;;;;;-145.69;100.00;52448.34;5130588;28;20732;-81
2023/03/14 01:44:19;;;;;;;1.17;0.67;;;;;;;-145.69;100.00;52452.31;5129058;28;20232;-81
2023/03/14 01:46:46;;;;;;;0.60;0.57;;;;;;;-145.69;100.00;52466.16;5128499;28;20217;-83
2023/03/14 01:49:23;;;;;;;0.60;0.60;;;;;;;-145.69;100.00;52432.50;5129978;28;20208;-81
2023/03/14 01:51:54;;;;;;;0.43;0.43;;;;;;;-145.69;100.00;52458.25;5125600;28;20273;-81
2023/03/14 01:54:27;;;;;;;0.50;0.50;;;;;;;-145.69;100.00;52462.22;5126187;28;20196;-81
2023/03/14 01:57:04;;;;;;;0.50;0.50;;;;;;;-145.69;100.00;52474.09;5128663;28;20682;-81
2023/03/14 01:59:33;;;;;;;2.10;0.60;;;;;;;-145.69;100.00;52424.59;5129216;28;20566;-82
2023/03/14 02:02:00;;;;;;;2.20;0.77;;;;;;;-145.69;100.00;52468.16;5126720;28;20326;-81
2023/03/14 02:04:31;;;;;;;0.60;0.60;;;;;;;-145.69;100.00;52452.31;5125878;28;20221;-82
2023/03/14 02:07:09;;;;;;;0.77;0.77;;;;;;;-145.69;100.00;52464.19;5127059;28;20747;-82
2023/03/14 02:09:40;;;;;;;1.00;0.60;;;;;;;-145.69;100.00;52412.69;5128751;28;20287;-81
2023/03/14 02:12:14;;;;;;;1.60;0.67;;;;;;;-145.69;100.00;52412.69;5127703;28;20229;-81
2023/03/14 02:14:42;;;;;;;1.13;0.70;;;;;;;-145.69;100.00;52474.09;5126537;28;20192;-82
2023/03/14 02:17:09;;;;;;;0.57;0.57;;;;;;;-145.69;100.00;52466.16;5131148;28;20598;-82
2023/03/14 02:19:50;;;;;;;1.53;0.70;;;;;;;-145.69;100.00;52460.22;5129748;28;20229;-82
2023/03/14 02:22:17;;;;;;;0.60;0.60;;;;;;;-145.69;100.00;52491.91;5128487;28;20204;-82
2023/03/14 02:24:53;;;;;;;0.80;0.60;;;;;;;-145.69;100.00;52487.97;5127449;28;20454;-82
2023/03/14 02:27:24;;;;;;;1.50;0.77;;;;;;;-145.69;100.00;52458.25;5126755;28;20205;-82
2023/03/14 02:29:55;;;;;;;0.80;0.63;;;;;;;-145.69;100.00;52472.13;5125545;28;20204;-82
2023/03/14 02:32:27;;;;;;;2.77;0.70;;;;;;;-145.69;100.00;52470.13;5122425;28;20204;-81
2023/03/14 02:34:56;;;;;;;4.23;1.03;;;;;;;-145.69;100.00;52464.19;5118839;28;20548;-81
2023/03/14 02:37:28;;;;;;;0.80;0.60;;;;;;;-145.69;100.00;52456.28;5118017;28;20225;-82
2023/03/14 02:39:54;;;;;;;0.80;0.73;;;;;;;-145.69;100.00;52472.13;5119023;28;20197;-80
2023/03/14 02:42:23;;;;;;;1.53;0.70;;;;;;;-145.69;100.00;52472.13;5117379;28;20316;-81
2023/03/14 02:44:55;;;;;;;0.70;0.70;;;;;;;-145.69;100.00;52452.31;5114385;28;20232;-81
2023/03/14 02:47:27;;;;;;;1.07;0.60;;;;;;;-145.69;100.00;52466.16;5121772;28;20686;-81
2023/03/14 02:50:00;;;;;;;1.07;0.60;;;;;;;-145.69;100.00;52464.19;5119052;28;20251;-82
2023/03/14 02:52:29;;;;;;;2.57;0.73;;;;;;;-145.69;100.00;52464.19;5117983;28;20201;-82
2023/03/14 02:55:00;;;;;;;2.20;0.60;;;;;;;-145.69;100.00;52424.59;5118768;28;20216;-80
2023/03/14 02:57:29;;;;;;;0.50;0.50;;;;;;;-145.69;100.00;52446.38;5122377;28;20200;-81
2023/03/14 02:59:59;;;;;;;1.90;0.60;;;;;;;-145.69;100.00;52484.00;5120307;28;20193;-83
2023/03/14 03:02:28;;;;;;;0.60;0.60;;;;;;;-145.69;100.00;52493.91;5119818;28;20197;-81
2023/03/14 03:04:56;;;;;;;0.80;0.67;;;;;;;-145.69;100.00;52458.25;5115394;28;20721;-82
2023/03/14 03:07:24;;;;;;;1.17;0.80;;;;;;;-145.69;100.00;52476.06;5117460;28;20563;-83
2023/03/14 03:09:51;;;;;;;0.83;0.80;;;;;;;-145.69;100.00;52448.34;5122899;28;20659;-82
2023/03/14 03:12:20;;;;;;;0.70;0.57;;;;;;;-145.69;100.00;52462.22;5123238;28;20678;-82
2023/03/14 03:14:48;;;;;;;1.70;0.80;;;;;;;-145.69;100.00;52466.16;5122705;28;20198;-82
2023/03/14 03:17:21;;;;;;;0.93;0.67;;;;;;;-145.69;100.00;52448.34;5125221;28;20193;-83
2023/03/14 03:19:48;;;;;;;2.77;0.73;;;;;;;-145.69;100.00;52460.22;5129228;28;20233;-81
2023/03/14 03:22:15;;;;;;;2.73;0.67;;;;;;;-145.69;100.00;52462.22;5131535;28;20254;-82
2023/03/14 03:24:45;;;;;;;0.93;0.70;;;;;;;-145.69;100.00;52440.44;5126100;28;20224;-80
2023/03/14 03:27:11;;;;;;;2.23;0.90;;;;;;;-145.69;100.00;52472.13;5130311;28;20193;-82
2023/03/14 03:29:38;;;;;;;1.27;0.60;;;;;;;-145.69;100.00;52460.22;5135174;28;20617;-83
2023/03/14 03:32:08;;;;;;;0.87;0.60;;;;;;;-145.69;100.00;52466.16;5132719;28;20197;-81
2023/03/14 03:34:34;;;;;;;1.40;0.70;;;;;;;-145.69;100.00;52462.22;5123425;28;20189;-81
2023/03/14 03:37:03;;;;;;;2.70;0.83;;;;;;;-145.69;100.00;52476.06;5126991;28;20294;-81
2023/03/14 03:42:15;;;;;;;1.73;0.70;;;;;;;-145.69;100.00;52478.06;5127747;28;20756;-82
2023/03/14 03:44:42;;;;;;;2.00;0.73;;;;;;;-145.69;100.00;52462.22;5123732;28;20694;-82
2023/03/14 03:47:10;;;;;;;1.53;0.60;;;;;;;-145.69;100.00;52499.84;5124735;28;20197;-81
2023/03/14 03:49:36;;;;;;;3.47;0.70;;;;;;;-145.69;100.00;52474.09;5126029;28;20748;-81
2023/03/14 03:52:09;;;;;;;2.20;0.70;;;;;;;-145.69;100.00;52472.13;5125069;28;20195;-82
2023/03/14 03:54:39;;;;;;;1.27;0.50;;;;;;;-145.69;100.00;52523.59;5123513;28;20667;-82
2023/03/14 03:57:08;;;;;;;1.00;0.70;;;;;;;-145.69;100.00;52448.34;5126156;28;20194;-81
2023/03/14 03:59:39;;;;;;;2.80;0.67;;;;;;;-145.69;100.00;52458.25;5122564;28;20197;-81
2023/03/14 04:02:08;;;;;;;5.03;0.80;;;;;;;-145.69;100.00;52468.16;5122601;28;20193;-81
2023/03/14 04:04:37;;;;;;;1.30;0.60;;;;;;;-145.69;100.00;52482.00;5125324;28;20225;-82
2023/03/14 04:07:04;;;;;;;2.80;0.60;;;;;;;-145.69;100.00;52472.13;5118686;28;20624;-80
2023/03/14 04:09:31;;;;;;;0.70;0.57;;;;;;;-145.69;100.00;52442.41;5115920;28;20201;-80
2023/03/14 04:11:57;;;;;;;2.17;0.60;;;;;;;-145.69;100.00;52480.03;5116624;28;20227;-81
2023/03/14 04:14:29;;;;;;;1.23;0.70;;;;;;;-145.69;100.00;52478.06;5117141;28;20197;-80
2023/03/14 04:16:55;;;;;;;2.77;0.60;;;;;;;-145.69;100.00;52420.63;5116262;28;20276;-81
2023/03/14 04:19:22;;;;;;;3.63;0.70;;;;;;;-145.69;100.00;52466.16;5116009;28;20292;-80
2023/03/14 04:21:56;;;;;;;3.77;0.90;;;;;;;-145.69;100.00;52462.22;5115804;28;20598;-81
2023/03/14 04:24:23;;;;;;;2.30;0.70;;;;;;;-145.69;100.00;52468.16;5104227;28;20224;-81
2023/03/14 04:26:49;;;;;;;5.47;0.93;;;;;;;-145.69;100.00;52458.25;5114738;28;20663;-80
2023/03/14 04:29:16;;;;;;;4.17;0.83;;;;;;;-145.69;100.00;52448.34;5114463;28;20193;-81
2023/03/14 04:31:42;;;;;;;3.20;0.80;;;;;;;-145.69;100.00;52436.47;5114487;28;20655;-80
2023/03/14 04:34:09;;;;;;;5.33;0.93;;;;;;;-145.69;100.00;52476.06;5114804;28;20193;-80
2023/03/14 04:36:36;;;;;;;3.90;1.10;;;;;;;-145.69;100.00;52456.28;5114213;28;20197;-83
2023/03/14 04:39:10;;;;;;;3.33;0.90;;;;;;;-145.69;100.00;52466.16;5115860;28;20225;-80
2023/03/14 04:41:36;;;;;;;4.03;1.10;;;;;;;-145.69;100.00;52476.06;5113987;28;20244;-80
2023/03/14 04:44:03;;;;;;;4.10;0.80;;;;;;;-145.69;100.00;52438.44;5114955;28;20198;-80
2023/03/14 04:46:31;;;;;;;2.93;0.90;;;;;;;-145.69;100.00;52484.00;5114367;28;20205;-80
2023/03/14 04:48:58;;;;;;;2.57;1.30;;;;;;;-145.69;100.00;52458.25;5113711;28;20228;-80
2023/03/14 04:51:27;;;;;;;3.33;1.33;;;;;;;-145.69;100.00;52458.25;5112525;28;20220;-82
2023/03/14 04:53:56;;;;;;;1.10;0.80;;;;;;;-145.69;100.00;52495.88;5115409;27;20206;-80
2023/03/14 04:56:32;;;;;;;4.30;1.17;;;;;;;-145.69;100.00;52432.50;5116157;28;20201;-81
2023/03/14 04:58:59;;;;;;;2.70;0.77;;;;;;;-145.69;100.00;52474.09;5115592;28;20222;-82
2023/03/14 05:01:28;;;;;;;2.17;0.90;;;;;;;-145.69;100.00;52480.03;5114389;28;20608;-81
2023/03/14 05:03:55;;;;;;;2.60;0.80;;;;;;;-145.69;100.00;52450.31;5113476;28;20658;-82
2023/03/14 05:06:23;;;;;;;3.03;0.80;;;;;;;-145.69;100.00;52458.25;5114699;28;20790;-82
2023/03/14 05:08:51;;;;;;;1.37;1.00;;;;;;;-145.69;100.00;52454.28;5114709;28;20197;-82
2023/03/14 05:11:18;;;;;;;3.13;0.80;;;;;;;-145.69;100.00;52472.13;5114489;28;20205;-82
2023/03/14 05:13:54;;;;;;;1.57;0.60;;;;;;;-145.69;100.00;52442.41;5113941;28;20194;-82
2023/03/14 05:16:23;;;;;;;3.67;0.80;;;;;;;-145.69;100.00;52422.59;5113989;28;20227;-81
2023/03/14 05:18:49;;;;;;;3.33;0.77;;;;;;;-145.69;100.00;52491.91;5113724;28;20197;-83
2023/03/14 05:21:16;;;;;;;3.43;0.83;;;;;;;-145.69;100.00;52472.13;5114091;28;20198;-81
2023/03/14 05:23:43;;;;;;;6.10;1.00;;;;;;;-145.69;100.00;52484.00;5114879;28;20585;-82
2023/03/14 05:26:09;;;;;;;2.23;0.70;;;;;;;-145.69;100.00;52491.91;5117562;28;20282;-83
2023/03/14 05:28:37;;;;;;;4.23;0.87;;;;;;;-145.69;100.00;52487.97;5115154;28;20720;-82
2023/03/14 05:31:11;;;;;;;3.70;0.97;;;;;;;-145.69;100.00;52456.28;5114943;28;20208;-82
2023/03/14 05:33:41;;;;;;;7.00;1.70;;;;;;;-145.69;100.00;52460.22;5115701;28;20200;-82
2023/03/14 05:36:10;;;;;;;3.40;1.00;;;;;;;-145.69;100.00;52499.84;5115162;28;20197;-82
2023/03/14 05:38:37;;;;;;;3.43;1.23;;;;;;;-145.69;100.00;52503.81;5113772;28;20652;-82
2023/03/14 05:41:04;;;;;;;2.07;1.00;;;;;;;-145.69;100.00;52480.03;5114241;28;20247;-81
2023/03/14 05:43:33;;;;;;;4.13;1.30;;;;;;;-145.69;100.00;52458.25;5113908;28;20668;-80
2023/03/14 05:45:59;;;;;;;1.67;0.80;;;;;;;-145.69;100.00;52428.53;5113724;28;20225;-82
2023/03/14 05:48:34;;;;;;;3.87;0.80;;;;;;;-145.69;100.00;52460.22;5113958;28;20200;-82
2023/03/14 05:51:03;;;;;;;1.27;0.80;;;;;;;-145.69;100.00;52446.38;5114944;28;20207;-82
2023/03/14 05:53:30;;;;;;;2.90;1.00;;;;;;;-145.69;100.00;52491.91;5113431;28;20205;-82
2023/03/14 05:55:57;;;;;;;3.00;0.90;;;;;;;-145.69;100.00;52458.25;5094431;28;20241;-81
2023/03/14 05:58:26;;;;;;;5.10;0.90;;;;;;;-145.69;100.00;52472.13;5095377;28;20202;-82
2023/03/14 06:00:52;;;;;;;0.90;0.67;;;;;;;-145.69;100.00;52438.44;5094603;28;20198;-82
2023/03/14 06:03:19;;;;;;;0.73;0.50;;;;;;;-145.69;100.00;52464.19;5105446;28;20551;-82
2023/03/14 06:05:50;;;;;;;1.30;0.70;;;;;;;-145.69;100.00;52452.31;5115704;28;20240;-82
2023/03/14 06:08:16;;;;;;;2.30;0.70;;;;;;;-145.69;100.00;52460.22;5115647;28;20670;-81
2023/03/14 06:10:45;;;;;;;0.60;0.60;;;;;;;-145.69;100.00;52474.09;5116221;28;20199;-82
2023/03/14 06:13:12;;;;;;;1.20;0.57;;;;;;;-145.69;100.00;52404.78;5115959;28;20193;-82
2023/03/14 06:15:43;;;;;;;3.70;0.97;;;;;;;-145.69;100.00;52450.31;5116300;28;20200;-82
2023/03/14 06:18:10;;;;;;;1.30;0.70;;;;;;;-145.69;100.00;52468.16;5115751;28;20644;-82
2023/03/14 06:20:41;;;;;;;0.87;0.70;;;;;;;-145.69;100.00;52440.44;5114848;28;20228;-82
2023/03/14 06:23:09;;;;;;;1.87;0.80;;;;;;;-145.69;100.00;52464.19;5116556;28;20231;-82
2023/03/14 06:25:37;;;;;;;1.90;0.70;;;;;;;-145.69;100.00;52487.97;5116844;28;20250;-81
2023/03/14 06:28:11;;;;;;;6.77;0.70;;;;;;;-145.69;100.00;52432.50;5117094;28;20206;-82
2023/03/14 06:30:40;;;;;;;2.80;0.90;;;;;;;-145.69;100.00;52497.84;5116713;28;20207;-82
2023/03/14 06:33:07;;;;;;;1.73;0.60;;;;;;;-145.69;100.00;52454.28;5119564;28;20204;-82
2023/03/14 06:35:34;;;;;;;3.97;0.77;;;;;;;-145.69;100.00;52452.31;5122831;28;20198;-82
2023/03/14 06:38:00;;;;;;;0.67;0.43;;;;;;;-145.69;100.00;52478.06;5122559;28;20223;-81
2023/03/14 06:40:28;;;;;;;2.30;1.10;;;;;;;-145.69;100.00;52495.88;5120160;28;20203;-81
2023/03/14 06:42:55;;;;;;;0.70;0.70;;;;;;;-145.69;100.00;52484.00;5120746;28;20229;-82
2023/03/14 06:45:22;;;;;;;1.53;0.90;;;;;;;-145.69;100.00;52476.06;5118753;28;20302;-82
2023/03/14 06:47:48;;;;;;;0.90;0.50;;;;;;;-145.69;100.00;52470.13;5118130;28;20225;-81
2023/03/14 06:50:15;;;;;;;0.97;0.63;;;;;;;-145.69;100.00;52444.38;5118489;28;20198;-82
2023/03/14 06:52:47;;;;;;;3.10;1.00;;;;;;;-145.69;100.00;52484.00;5118073;28;20221;-81
2023/03/14 06:55:14;;;;;;;1.00;0.67;;;;;;;-145.69;100.00;52460.22;5113485;28;20232;-82
2023/03/14 06:57:43;;;;;;;2.23;0.97;;;;;;;-145.69;100.00;52464.19;5117821;28;20289;-82
2023/03/14 07:00:11;;;;;;;1.00;0.60;;;;;;;-145.69;100.00;52422.59;5117847;28;20240;-81
2023/03/14 07:02:38;;;;;;;1.37;0.60;;;;;;;-145.69;100.00;52452.31;5119138;28;20185;-82
2023/03/14 07:05:06;;;;;;;5.20;0.80;;;;;;;-145.69;100.00;52444.38;5122269;28;20278;-82
2023/03/14 07:07:32;;;;;;;3.77;0.67;;;;;;;-145.69;100.00;52428.53;5116739;28;20229;-84
2023/03/14 07:09:59;;;;;;;2.73;0.40;;;;;;;-145.69;100.00;52412.69;5117435;28;20208;-83
2023/03/14 07:12:26;;;;;;;0.80;0.80;;;;;;;-145.69;100.00;52446.38;5117809;28;20220;-84
2023/03/14 07:14:53;;;;;;;2.50;1.07;;;;;;;-145.69;100.00;52414.69;5116241;28;20220;-84
2023/03/14 07:17:20;;;;;;;2.53;0.80;;;;;;;-145.69;100.00;52464.19;5117737;28;20198;-84
2023/03/14 07:19:50;;;;;;;0.97;0.80;;;;;;;-145.69;100.00;52462.22;5116299;28;20679;-84
2023/03/14 07:22:16;;;;;;;1.63;0.60;;;;;;;-145.69;100.00;52458.25;5117874;28;20698;-85
2023/03/14 07:24:43;;;;;;;1.53;0.80;;;;;;;-145.69;100.00;52418.63;5120774;28;20201;-84
2023/03/14 07:27:11;;;;;;;0.80;0.60;;;;;;;-145.69;100.00;52398.84;5119464;28;20237;-84
2023/03/14 07:29:38;;;;;;;0.60;0.60;;;;;;;-145.69;100.00;52454.28;5119921;28;20648;-85
2023/03/14 07:32:09;;;;;;;0.93;0.60;;;;;;;-145.69;100.00;52410.72;5120146;28;20213;-84
2023/03/14 07:34:36;;;;;;;0.60;0.50;;;;;;;-145.69;100.00;52432.50;5101422;28;20202;-84
2023/03/14 07:37:04;;;;;;;0.90;0.53;;;;;;;-145.69;100.00;52404.78;5099852;28;20206;-84
2023/03/14 07:39:31;;;;;;;1.13;0.57;;;;;;;-145.69;100.00;52430.53;5100967;28;20603;-83
2023/03/14 07:41:58;;;;;;;0.50;0.50;;;;;;;-145.69;100.00;52414.69;5098471;28;20234;-82
2023/03/14 07:44:24;;;;;;;1.23;0.47;;;;;;;-145.69;100.00;52412.69;5099517;28;20210;-83
2023/03/14 07:46:53;;;;;;;0.50;0.50;;;;;;;-145.69;100.00;52434.47;5103072;28;20226;-82
2023/03/14 07:49:24;;;;;;;0.50;0.50;;;;;;;-145.69;100.00;52438.44;5101813;28;20258;-82
2023/03/14 07:51:50;;;;;;;2.80;0.70;;;;;;;-145.69;100.00;52396.84;5122333;28;20213;-82
2023/03/14 07:54:20;;;;;;;1.23;0.60;;;;;;;-145.69;100.00;52412.69;5123589;28;20201;-83
2023/03/14 07:56:47;;;;;;;5.47;0.50;;;;;;;-145.69;100.00;52428.53;5121766;28;20201;-81
2023/03/14 07:59:13;;;;;;;1.70;0.60;;;;;;;-145.69;100.00;52422.59;5117614;28;20548;-82
2023/03/14 08:01:40;;;;;;;1.87;0.60;;;;;;;-145.69;100.00;52410.72;5118327;28;20201;-82
2023/03/14 08:04:06;;;;;;;0.70;0.60;;;;;;;-145.69;100.00;52396.84;5117420;28;20256;-83
2023/03/14 08:06:35;;;;;;;0.90;0.50;;;;;;;-145.69;100.00;52377.06;5122270;28;20464;-82
2023/03/14 08:09:02;;;;;;;1.07;0.50;;;;;;;-145.69;100.00;52416.66;5122929;28;20201;-81
2023/03/14 08:11:29;;;;;;;0.93;0.60;;;;;;;-145.69;100.00;52390.91;5122188;28;20297;-82
2023/03/14 08:13:55;;;;;;;0.50;0.50;;;;;;;-145.69;100.00;52388.94;5123236;28;20667;-82
2023/03/14 08:16:22;;;;;;;1.90;0.73;;;;;;;-145.69;100.00;52388.94;5122650;28;20231;-82
2023/03/14 08:18:49;;;;;;;0.87;0.57;;;;;;;-145.69;100.00;52428.53;5123096;28;20199;-82
2023/03/14 08:21:15;;;;;;;11.47;0.50;;;;;;;-145.69;100.00;52400.81;5121957;28;20193;-83
2023/03/14 08:23:43;;;;;;;2.57;0.40;;;;;;;-145.69;100.00;52392.91;5120865;28;20207;-81
2023/03/14 08:26:10;;;;;;;2.13;0.60;;;;;;;-145.69;100.00;52428.53;5121411;28;20224;-82
2023/03/14 08:28:37;;;;;;;0.40;0.40;;;;;;;-145.69;100.00;52424.59;5122295;28;20193;-82
2023/03/14 08:31:03;;;;;;;0.80;0.60;;;;;;;-145.69;100.00;52420.63;5122531;28;20201;-83
2023/03/14 08:33:33;;;;;;;1.50;0.50;;;;;;;-145.69;100.00;52404.78;5123283;28;20194;-82
2023/03/14 08:36:01;;;;;;;0.50;0.50;;;;;;;-145.69;100.00;52398.84;5123939;28;20571;-83
2023/03/14 08:38:28;;;;;;;0.90;0.50;;;;;;;-145.69;100.00;52412.69;5121583;28;20211;-82
2023/03/14 08:40:59;;;;;;;0.30;0.30;;;;;;;-145.69;100.00;52414.69;5123287;28;20214;-82
2023/03/14 08:43:26;;;;;;;1.53;0.70;;;;;;;-145.69;100.00;52428.53;5119037;28;20237;-80
2023/03/14 08:45:52;;;;;;;1.33;1.00;;;;;;;-145.69;100.00;52430.53;5113658;28;20229;-80
2023/03/14 08:48:19;;;;;;;0.93;0.50;;;;;;;-145.69;100.00;52402.78;5114329;28;20288;-80
2023/03/14 08:50:46;;;;;;;0.50;0.50;;;;;;;-145.69;100.00;52410.72;5105305;28;20200;-79
2023/03/14 08:53:12;;;;;;;1.23;0.50;;;;;;;-145.69;100.00;52420.63;5093426;28;20672;-79
2023/03/14 08:55:39;;;;;;;3.70;0.70;;;;;;;-145.69;100.00;52416.66;5093129;28;20538;-80
2023/03/14 08:58:09;;;;;;;0.40;0.30;;;;;;;-145.69;100.00;52390.91;5102180;28;20190;-79
2023/03/14 09:00:36;;;;;;;0.67;0.53;;;;;;;-145.69;100.00;52468.16;5113471;28;20247;-79
2023/03/14 09:03:03;;;;;;;0.53;0.53;;;;;;;-145.69;100.00;52410.72;5115639;28;20670;-80
2023/03/14 09:05:30;;;;;;;1.57;0.70;;;;;;;-145.69;100.00;52398.84;5118823;28;20559;-81
2023/03/14 09:07:56;;;;;;;1.10;0.60;;;;;;;-145.69;100.00;52430.53;5117370;28;20280;-79
2023/03/14 09:10:23;;;;;;;0.87;0.50;;;;;;;-145.69;100.00;52412.69;5117789;28;20555;-81
2023/03/14 09:12:49;;;;;;;2.10;0.60;;;;;;;-145.69;100.00;52416.66;5121778;28;20284;-82
2023/03/14 09:15:17;;;;;;;3.63;0.50;;;;;;;-145.69;100.00;52440.44;5121598;28;20208;-82
2023/03/14 09:17:44;;;;;;;0.30;0.30;;;;;;;-145.69;100.00;52410.72;5121996;28;20212;-82
2023/03/14 09:20:14;;;;;;;0.80;0.80;;;;;;;-145.69;100.00;52408.75;5121863;28;20197;-82
2023/03/14 09:22:43;;;;;;;0.50;0.50;;;;;;;-145.69;100.00;52396.84;5122216;28;20205;-81
2023/03/14 09:25:11;;;;;;;0.40;0.40;;;;;;;-145.69;100.00;52426.56;5121791;28;20193;-81
2023/03/14 09:27:37;;;;;;;0.40;0.40;;;;;;;-145.69;100.00;52408.75;5123490;28;20225;-81
2023/03/14 09:30:05;;;;;;;1.23;0.50;;;;;;;-145.69;100.00;52428.53;5122052;28;20193;-81
2023/03/14 09:32:33;;;;;;;0.50;0.50;;;;;;;-145.69;100.00;52369.13;5122253;28;20296;-81
2023/03/14 09:35:01;;;;;;;1.53;0.57;;;;;;;-145.69;100.00;52408.75;5102891;28;20236;-81
2023/03/14 09:37:30;;;;;;;0.60;0.50;;;;;;;-145.69;100.00;52438.44;5101524;28;20552;-81
2023/03/14 09:39:57;;;;;;;0.67;0.47;;;;;;;-145.69;100.00;52432.50;5101941;28;20292;-81
2023/03/14 09:42:27;;;;;;;0.60;0.60;;;;;;;-145.69;100.00;52422.59;5101965;28;20252;-80
2023/03/14 09:44:57;;;;;;;0.80;0.57;;;;;;;-145.69;100.00;52448.34;5100670;28;20261;-81
2023/03/14 09:47:25;;;;;;;0.67;0.60;;;;;;;-145.69;100.00;52422.59;5098073;28;20234;-82
2023/03/14 09:49:54;;;;;;;1.53;0.80;;;;;;;-145.69;100.00;52424.59;5093936;28;20201;-82
2023/03/14 09:52:25;;;;;;;0.70;0.70;;;;;;;-145.69;100.00;52446.38;5118699;28;20193;-82
2023/03/14 09:54:58;;;;;;;1.40;0.60;;;;;;;-145.69;100.00;52444.38;5122732;28;20284;-81
2023/03/14 09:57:26;;;;;;;0.83;0.70;;;;;;;-145.69;100.00;52408.75;5122168;28;20197;-81
2023/03/14 09:59:57;;;;;;;0.50;0.40;;;;;;;-145.69;100.00;52428.53;5116783;28;20201;-80
2023/03/14 10:02:26;;;;;;;0.80;0.60;;;;;;;-145.69;100.00;52434.47;5100083;28;20248;-82
2023/03/14 10:04:55;;;;;;;2.40;0.67;;;;;;;-145.69;100.00;52428.53;5112392;28;20316;-83
2023/03/14 10:07:29;;;;;;;0.53;0.50;;;;;;;-145.69;100.00;52416.66;5118993;27;20577;-80
2023/03/14 10:09:58;;;;;;;0.50;0.50;;;;;;;-145.69;100.00;52458.25;5117024;28;20197;-81
2023/03/14 10:12:32;;;;;;;1.97;0.50;;;;;;;-145.69;100.00;52384.97;5119764;27;20521;-80
2023/03/14 10:15:03;;;;;;;0.50;0.50;;;;;;;-145.69;100.00;52396.84;5116967;28;20189;-80
2023/03/14 10:17:43;;;;;;;1.00;0.50;;;;;;;-145.69;100.00;52402.78;5116816;28;20228;-81
2023/03/14 10:20:32;;;;;;;2.13;0.60;;;;;;;-145.69;100.00;52388.94;5117160;28;20205;-80
2023/03/14 10:22:59;;;;;;;0.50;0.50;;;;;;;-145.69;100.00;52426.56;5116906;27;20193;-81
2023/03/14 10:25:29;;;;;;;0.73;0.50;;;;;;;-145.69;100.00;52400.81;5119059;28;20198;-81
2023/03/14 10:27:55;;;;;;;0.40;0.40;;;;;;;-145.69;100.00;52408.75;5116677;28;20253;-80
2023/03/14 10:30:34;;;;;;;0.57;0.57;;;;;;;-145.69;100.00;52430.53;5116825;28;20201;-81
2023/03/14 10:33:10;;;;;;;0.73;0.50;;;;;;;-145.69;100.00;52428.53;5116487;28;20360;-82
2023/03/14 10:35:38;;;;;;;1.13;0.50;;;;;;;-145.69;100.00;52406.75;5117003;28;20201;-82
2023/03/14 10:38:05;;;;;;;0.60;0.50;;;;;;;-145.69;100.00;52416.66;5119794;28;20651;-82
2023/03/14 10:40:40;;;;;;;2.27;0.60;;;;;;;-145.69;100.00;52381.00;5116800;28;20601;-80
2023/03/14 10:43:14;;;;;;;0.43;0.43;;;;;;;-145.69;100.00;52396.84;5116615;28;20326;-79
2023/03/14 10:45:43;;;;;;;0.40;0.40;;;;;;;-145.69;100.00;52420.63;5116375;28;20193;-79
2023/03/14 10:48:24;;;;;;;0.43;0.43;;;;;;;-145.69;100.00;52402.78;5115697;28;20225;-78
2023/03/14 10:51:05;;;;;;;0.50;0.50;;;;;;;-145.69;100.00;52390.91;5116255;28;20288;-77
2023/03/14 10:53:41;;;;;;;2.87;0.70;;;;;;;-145.69;100.00;52416.66;5115889;28;20197;-78
2023/03/14 10:56:14;;;;;;;4.00;1.80;;;;;;;-145.69;100.00;52392.91;5115978;28;20208;-78
2023/03/14 10:58:43;;;;;;;2.67;1.07;;;;;;;-145.69;100.00;52448.34;5105679;28;20243;-78
2023/03/14 11:01:37;;;;;;;1.90;0.90;;;;;;;-145.69;100.00;52458.25;5096669;28;20252;-78
2023/03/14 11:04:26;;;;;;;0.67;0.50;;;;;;;-145.69;100.00;52428.53;5113481;28;20288;-80
2023/03/14 11:07:02;;;;;;;0.40;0.40;;;;;;;-145.69;100.00;52416.66;5114733;27;20225;-80
2023/03/14 11:09:37;;;;;;;0.40;0.40;;;;;;;-145.69;100.00;52464.19;5115467;28;20197;-80
2023/03/14 11:12:21;;;;;;;0.83;0.63;;;;;;;-145.69;100.00;52440.44;5115618;28;20193;-80
2023/03/14 11:14:54;;;;;;;0.70;0.70;;;;;;;-145.69;100.00;52424.59;5115212;28;20209;-80
2023/03/14 11:17:26;;;;;;;0.70;0.60;;;;;;;-145.69;100.00;52442.41;5115402;28;20200;-81
2023/03/14 11:20:05;;;;;;;0.60;0.60;;;;;;;-145.69;100.00;52448.34;5114122;28;20221;-80
2023/03/14 11:22:40;;;;;;;0.60;0.60;;;;;;;-145.69;100.00;52448.34;5115357;27;20204;-80